createdAt,value
2022-09-17T00:03:25.063Z,66569.50
2022-09-17T00:08:29.285Z,66480.81
2022-09-17T00:13:33.181Z,66545.19
2022-09-17T00:18:41.782Z,66518.88
2022-09-17T00:23:45.653Z,66472.78
2022-09-17T00:28:51.561Z,66593.75
2022-09-17T00:33:56.499Z,66531.41
2022-09-17T00:39:01.651Z,66480.28
2022-09-17T00:44:53.250Z,66434.72
2022-09-17T00:50:02.226Z,66399.81
2022-09-17T00:55:14.099Z,66536.78
2022-09-17T01:00:18.971Z,66372.72
2022-09-17T01:05:37.741Z,66421.13
2022-09-17T01:11:27.843Z,66466.31
2022-09-17T01:16:42.008Z,66377.81
2022-09-17T01:22:01.551Z,66406.28
2022-09-17T01:27:33.461Z,66438.84
2022-09-17T01:32:43.847Z,66537.91
2022-09-17T01:37:56.132Z,66574.25
2022-09-17T01:43:08.540Z,66549.59
2022-09-17T01:48:18.169Z,66554.00
2022-09-17T01:53:27.847Z,66514.22
2022-09-17T01:58:35.613Z,66518.34
2022-09-17T02:03:45.206Z,66351.41
2022-09-17T02:08:53.064Z,66512.53
2022-09-17T02:14:01.064Z,66498.63
2022-09-17T02:19:12.223Z,66489.88
2022-09-17T02:24:20.872Z,66377.16
2022-09-17T02:29:30.862Z,66431.44
2022-09-17T02:34:36.951Z,66377.81
2022-09-17T02:39:41.928Z,66385.31
2022-09-17T02:44:56.043Z,66373.97
2022-09-17T02:50:20.309Z,66342.22
2022-09-17T02:55:32.076Z,66307.97
2022-09-17T03:00:36.218Z,66368.59
2022-09-17T03:05:44.316Z,66272.56
2022-09-17T03:10:49.631Z,66255.94
2022-09-17T03:15:53.696Z,66245.22
2022-09-17T03:20:58.904Z,66199.63
2022-09-17T03:26:02.886Z,66295.00
2022-09-17T03:31:07.023Z,66264.53
2022-09-17T03:36:12.434Z,66358.31
2022-09-17T03:41:16.268Z,66346.03
2022-09-17T03:46:21.025Z,66373.25
2022-09-17T03:51:26.518Z,66399.28
2022-09-17T03:56:30.460Z,66397.56
2022-09-17T04:01:34.561Z,66328.88
2022-09-17T04:06:39.966Z,66433.50
2022-09-17T04:11:44.024Z,66448.06
2022-09-17T04:16:47.901Z,66431.50
2022-09-17T04:21:53.374Z,66332.56
2022-09-17T04:26:57.316Z,66405.63
2022-09-17T04:32:01.291Z,66305.44
2022-09-17T04:37:06.827Z,66416.31
2022-09-17T04:42:10.729Z,66430.78
2022-09-17T04:47:14.821Z,66426.50
2022-09-17T04:52:20.049Z,66346.22
2022-09-17T04:57:25.675Z,66411.56
2022-09-17T05:02:29.761Z,66457.72
2022-09-17T05:07:35.117Z,66512.06
2022-09-17T05:12:38.896Z,66512.59
2022-09-17T05:17:42.705Z,66524.25
2022-09-17T05:22:49.123Z,66516.34
2022-09-17T05:27:54.230Z,66520.66
2022-09-17T05:33:02.282Z,66552.81
2022-09-17T05:38:08.737Z,66557.66
2022-09-17T05:43:13.091Z,66551.38
2022-09-17T05:48:17.141Z,66585.47
2022-09-17T05:53:22.444Z,66661.34
2022-09-17T05:58:28.737Z,66680.56
2022-09-17T06:03:32.572Z,66713.00
2022-09-17T06:08:37.948Z,66709.41
2022-09-17T06:13:43.628Z,66722.16
2022-09-17T06:18:47.809Z,66828.34
2022-09-17T06:23:53.808Z,66901.47
2022-09-17T06:28:59.778Z,66905.75
2022-09-17T06:34:05.718Z,66949.50
2022-09-17T06:39:11.840Z,66836.38
2022-09-17T06:44:16.121Z,66807.19
2022-09-17T06:49:19.954Z,66721.16
2022-09-17T06:54:25.267Z,66750.19
2022-09-17T06:59:29.458Z,66740.97
2022-09-17T07:04:33.327Z,66747.91
2022-09-17T07:09:38.870Z,66714.09
2022-09-17T07:14:42.775Z,66702.78
2022-09-17T07:19:46.900Z,66636.69
2022-09-17T07:24:52.068Z,66632.38
2022-09-17T07:29:55.886Z,66713.00
2022-09-17T07:34:59.677Z,66700.72
2022-09-17T07:40:08.051Z,66653.81
2022-09-17T07:45:12.433Z,66693.66
2022-09-17T07:50:16.849Z,66625.38
2022-09-17T07:55:23.943Z,66645.38
2022-09-17T08:00:27.802Z,66657.22
2022-09-17T08:05:33.620Z,66802.50
2022-09-17T08:10:39.709Z,66746.50
2022-09-17T08:15:43.604Z,66721.16
2022-09-17T08:20:47.766Z,66763.75
2022-09-17T08:25:55.485Z,66819.13
2022-09-17T08:31:02.727Z,66904.22
2022-09-17T08:36:09.232Z,66730.84
2022-09-17T08:41:24.315Z,66807.66
2022-09-17T08:46:29.884Z,66805.13
2022-09-17T08:51:43.999Z,66828.28
2022-09-17T08:57:02.632Z,66939.19
2022-09-17T09:02:22.465Z,66996.94
2022-09-17T09:07:29.749Z,66978.53
2022-09-17T09:12:38.139Z,67060.50
2022-09-17T09:17:45.142Z,67006.16
2022-09-17T09:22:51.252Z,67023.41
2022-09-17T09:28:08.116Z,67047.69
2022-09-17T09:33:17.894Z,66998.63
2022-09-17T09:38:31.562Z,66951.13
2022-09-17T09:44:02.875Z,67040.53
2022-09-17T09:49:16.691Z,67115.66
2022-09-17T09:54:38.990Z,67085.31
2022-09-17T09:59:45.568Z,67051.34
2022-09-17T10:04:53.372Z,67021.19
2022-09-17T10:10:10.432Z,66992.63
2022-09-17T10:15:26.409Z,67119.31
2022-09-17T10:20:30.569Z,67123.13
2022-09-17T10:25:35.992Z,67040.06
2022-09-17T10:30:57.147Z,66967.28
2022-09-17T10:36:04.509Z,67074.13
2022-09-17T10:41:14.475Z,67082.75
2022-09-17T10:46:27.963Z,67213.81
2022-09-17T10:51:32.128Z,67138.28
2022-09-17T10:56:37.985Z,67091.84
2022-09-17T11:01:56.988Z,66980.13
2022-09-17T11:07:33.474Z,66964.13
2022-09-17T11:12:46.912Z,66985.66
2022-09-17T11:18:14.402Z,67011.03
2022-09-17T11:23:32.761Z,67004.94
2022-09-17T11:28:53.941Z,66964.53
2022-09-17T11:34:16.933Z,66945.19
2022-09-17T11:39:26.966Z,66973.16
2022-09-17T11:44:34.200Z,66970.53
2022-09-17T11:49:46.600Z,66850.28
2022-09-17T11:54:56.721Z,66824.53
2022-09-17T12:00:06.076Z,66897.84
2022-09-17T12:05:22.099Z,66930.09
2022-09-17T12:10:47.807Z,66999.69
2022-09-17T12:15:57.513Z,66918.25
2022-09-17T12:21:06.277Z,66937.63
2022-09-17T12:26:22.051Z,66854.06
2022-09-17T12:31:33.917Z,66845.44
2022-09-17T12:36:50.314Z,66824.53
2022-09-17T12:42:06.428Z,66914.38
2022-09-17T12:47:36.283Z,66904.84
2022-09-17T12:52:52.750Z,66855.66
2022-09-17T12:58:04.501Z,66885.75
2022-09-17T13:03:19.621Z,66902.06
2022-09-17T13:08:57.436Z,66927.88
2022-09-17T13:14:11.107Z,66963.03
2022-09-17T13:19:27.076Z,66902.53
2022-09-17T13:24:33.305Z,66853.50
2022-09-17T13:29:59.837Z,66882.81
2022-09-17T13:35:51.119Z,66914.06
2022-09-17T13:41:20.323Z,66890.22
2022-09-17T13:46:26.006Z,66980.13
2022-09-17T13:51:48.454Z,66843.50
2022-09-17T13:57:08.622Z,66843.34
2022-09-17T14:02:37.515Z,66972.63
2022-09-17T14:07:50.052Z,66915.63
2022-09-17T14:12:56.999Z,66929.56
2022-09-17T14:18:02.777Z,66964.59
2022-09-17T14:23:13.488Z,66849.75
2022-09-17T14:28:30.016Z,66779.28
2022-09-17T14:33:35.629Z,66795.34
2022-09-17T14:38:45.565Z,66806.03
2022-09-17T14:43:53.618Z,66828.22
2022-09-17T14:49:15.306Z,66809.81
2022-09-17T14:54:27.279Z,66872.97
2022-09-17T14:59:50.655Z,66911.75
2022-09-17T15:04:54.684Z,66888.19
2022-09-17T15:10:10.561Z,66783.59
2022-09-17T15:15:22.207Z,66774.91
2022-09-17T15:20:31.481Z,66933.81
2022-09-17T15:25:38.374Z,66736.22
2022-09-17T15:30:42.479Z,66790.03
2022-09-17T15:36:00.353Z,66769.09
2022-09-17T15:41:25.347Z,66754.53
2022-09-17T15:46:31.268Z,66745.91
2022-09-17T15:51:37.278Z,66704.00
2022-09-17T15:56:43.452Z,66703.34
2022-09-17T16:01:57.525Z,66664.66
2022-09-17T16:07:24.517Z,66622.72
2022-09-17T16:12:30.174Z,66613.03
2022-09-17T16:17:43.330Z,66673.88
2022-09-17T16:22:48.381Z,66710.84
2022-09-17T16:27:57.278Z,66680.78
2022-09-17T16:33:03.898Z,66587.31
2022-09-17T16:38:09.632Z,66580.25
2022-09-17T16:43:14.685Z,66540.00
2022-09-17T16:48:18.646Z,66562.88
2022-09-17T16:53:22.756Z,66522.19
2022-09-17T16:58:28.195Z,66543.59
2022-09-17T17:03:32.396Z,66575.41
2022-09-17T17:08:36.190Z,66489.94
2022-09-17T17:13:43.101Z,66531.31
2022-09-17T17:18:46.928Z,66583.47
2022-09-17T17:23:50.861Z,66545.84
2022-09-17T17:28:56.093Z,66499.47
2022-09-17T17:34:00.088Z,66512.53
2022-09-17T17:39:04.818Z,66567.34
2022-09-17T17:44:12.610Z,66617.94
2022-09-17T17:49:17.155Z,66473.66
2022-09-17T17:54:22.133Z,66470.69
2022-09-17T17:59:27.327Z,66557.47
2022-09-17T18:04:31.202Z,66520.56
2022-09-17T18:09:35.562Z,66470.06
2022-09-17T18:14:40.718Z,66453.44
2022-09-17T18:19:44.723Z,66493.09
2022-09-17T18:24:48.725Z,66493.72
2022-09-17T18:29:54.077Z,66417.00
2022-09-17T18:34:58.185Z,66438.56
2022-09-17T18:40:02.532Z,66473.22
2022-09-17T18:45:09.421Z,66472.13
2022-09-17T18:50:14.530Z,66454.34
2022-09-17T18:55:18.366Z,66555.41
2022-09-17T19:00:30.982Z,66532.38
2022-09-17T19:05:34.986Z,66550.84
2022-09-17T19:10:38.738Z,66591.06
2022-09-17T19:15:44.249Z,66533.38
2022-09-17T19:20:48.059Z,66562.44
2022-09-17T19:25:51.885Z,66561.34
2022-09-17T19:30:57.203Z,66471.69
2022-09-17T19:36:02.007Z,66420.06
2022-09-17T19:41:09.117Z,66406.63
2022-09-17T19:46:21.702Z,66423.81
2022-09-17T19:51:28.399Z,66495.94
2022-09-17T19:56:32.463Z,66443.78
2022-09-17T20:01:37.768Z,66425.50
2022-09-17T20:06:41.931Z,66400.16
2022-09-17T20:11:45.968Z,66446.44
2022-09-17T20:16:51.231Z,66461.41
2022-09-17T20:21:55.164Z,66415.91
2022-09-17T20:26:59.224Z,66404.00
2022-09-17T20:32:04.968Z,66537.06
2022-09-17T20:37:13.519Z,66466.94
2022-09-17T20:42:18.247Z,66530.25
2022-09-17T20:47:23.666Z,66481.91
2022-09-17T20:52:27.613Z,66517.88
2022-09-17T20:57:32.073Z,66515.66
2022-09-17T21:02:38.206Z,66482.97
2022-09-17T21:07:42.039Z,66604.81
2022-09-17T21:12:46.088Z,66561.88
2022-09-17T21:17:51.955Z,66415.22
2022-09-17T21:22:56.389Z,66446.84
2022-09-17T21:28:00.901Z,66459.72
2022-09-17T21:33:06.267Z,66512.88
2022-09-17T21:38:10.132Z,66431.97
2022-09-17T21:43:14.049Z,66354.09
2022-09-17T21:48:19.295Z,66413.09
2022-09-17T21:53:23.294Z,66501.16
2022-09-17T21:58:27.185Z,66544.13
2022-09-17T22:03:32.672Z,66551.19
2022-09-17T22:08:36.864Z,66467.47
2022-09-17T22:13:41.639Z,66455.44
2022-09-17T22:18:49.244Z,66488.34
2022-09-17T22:23:55.633Z,66583.47
2022-09-17T22:29:03.596Z,66577.03
2022-09-17T22:34:11.245Z,66472.78
2022-09-17T22:39:15.675Z,66468.94
2022-09-17T22:44:21.146Z,66477.06
2022-09-17T22:49:26.667Z,66372.72
2022-09-17T22:54:31.037Z,66464.09
2022-09-17T22:59:35.149Z,66408.69
2022-09-17T23:04:40.323Z,66322.38
2022-09-17T23:09:44.447Z,66238.84
2022-09-17T23:14:48.718Z,66317.69
2022-09-17T23:19:54.136Z,66319.22
2022-09-17T23:24:57.990Z,66294.47
2022-09-17T23:30:01.790Z,66373.34
2022-09-17T23:35:08.276Z,66381.00
2022-09-17T23:40:13.003Z,66273.09
2022-09-17T23:45:16.979Z,66340.22
2022-09-17T23:50:22.671Z,66403.47
2022-09-17T23:55:26.548Z,66357.78
